sensor_id;sensor_type;location;lat;lon;timestamp;P1;durP1;ratioP1;P2;durP2;ratioP2
60873;SDS011;46715;40.642;-7.920;2023-07-16T00:01:44;13.83;;;4.43;;
60873;SDS011;46715;40.642;-7.920;2023-07-16T00:03:44;10.77;;;4.77;;
60873;SDS011;46715;40.642;-7.920;2023-07-16T00:05:45;14.07;;;5.57;;
60873;SDS011;46715;40.642;-7.920;2023-07-16T00:07:46;15.17;;;5.50;;
60873;SDS011;46715;40.642;-7.920;2023-07-16T00:09:46;10.70;;;5.27;;
60873;SDS011;46715;40.642;-7.920;2023-07-16T00:11:47;13.30;;;5.20;;
60873;SDS011;46715;40.642;-7.920;2023-07-16T00:13:48;12.73;;;5.00;;
60873;SDS011;46715;40.642;-7.920;2023-07-16T00:15:49;13.18;;;4.32;;
60873;SDS011;46715;40.642;-7.920;2023-07-16T00:17:49;11.77;;;5.10;;
60873;SDS011;46715;40.642;-7.920;2023-07-16T00:19:50;9.87;;;4.63;;
60873;SDS011;46715;40.642;-7.920;2023-07-16T00:21:51;12.27;;;4.60;;
60873;SDS011;46715;40.642;-7.920;2023-07-16T00:23:51;12.30;;;4.50;;
60873;SDS011;46715;40.642;-7.920;2023-07-16T00:25:52;12.40;;;4.53;;
60873;SDS011;46715;40.642;-7.920;2023-07-16T00:27:53;12.97;;;5.47;;
60873;SDS011;46715;40.642;-7.920;2023-07-16T00:29:53;11.10;;;4.60;;
60873;SDS011;46715;40.642;-7.920;2023-07-16T00:31:54;11.83;;;4.43;;
60873;SDS011;46715;40.642;-7.920;2023-07-16T00:33:55;15.43;;;4.97;;
60873;SDS011;46715;40.642;-7.920;2023-07-16T00:35:57;14.32;;;5.13;;
60873;SDS011;46715;40.642;-7.920;2023-07-16T00:37:58;8.93;;;4.77;;
60873;SDS011;46715;40.642;-7.920;2023-07-16T00:39:58;12.83;;;5.30;;
60873;SDS011;46715;40.642;-7.920;2023-07-16T00:41:59;11.90;;;5.00;;
60873;SDS011;46715;40.642;-7.920;2023-07-16T00:44:00;13.00;;;5.40;;
60873;SDS011;46715;40.642;-7.920;2023-07-16T00:46:00;13.53;;;5.40;;
60873;SDS011;46715;40.642;-7.920;2023-07-16T00:48:01;14.67;;;4.90;;
60873;SDS011;46715;40.642;-7.920;2023-07-16T00:50:02;17.42;;;5.15;;
60873;SDS011;46715;40.642;-7.920;2023-07-16T00:52:03;13.63;;;4.87;;
60873;SDS011;46715;40.642;-7.920;2023-07-16T00:54:05;9.93;;;5.00;;
60873;SDS011;46715;40.642;-7.920;2023-07-16T00:56:06;11.25;;;4.82;;
60873;SDS011;46715;40.642;-7.920;2023-07-16T00:58:08;14.40;;;5.07;;
60873;SDS011;46715;40.642;-7.920;2023-07-16T01:00:09;11.97;;;5.00;;
60873;SDS011;46715;40.642;-7.920;2023-07-16T01:02:11;14.52;;;5.70;;
60873;SDS011;46715;40.642;-7.920;2023-07-16T01:04:12;13.10;;;4.82;;
60873;SDS011;46715;40.642;-7.920;2023-07-16T01:08:33;10.45;;;4.75;;
60873;SDS011;46715;40.642;-7.920;2023-07-16T01:10:39;13.13;;;4.88;;
60873;SDS011;46715;40.642;-7.920;2023-07-16T01:12:41;11.43;;;5.20;;
60873;SDS011;46715;40.642;-7.920;2023-07-16T01:14:43;12.00;;;4.90;;
60873;SDS011;46715;40.642;-7.920;2023-07-16T01:16:44;11.70;;;5.70;;
60873;SDS011;46715;40.642;-7.920;2023-07-16T01:18:45;12.00;;;4.97;;
60873;SDS011;46715;40.642;-7.920;2023-07-16T01:20:45;15.33;;;5.87;;
60873;SDS011;46715;40.642;-7.920;2023-07-16T01:22:49;7.87;;;4.30;;
60873;SDS011;46715;40.642;-7.920;2023-07-16T01:27:45;14.15;;;5.10;;
60873;SDS011;46715;40.642;-7.920;2023-07-16T01:30:02;17.25;;;5.68;;
60873;SDS011;46715;40.642;-7.920;2023-07-16T01:32:05;11.93;;;5.15;;
60873;SDS011;46715;40.642;-7.920;2023-07-16T01:34:09;18.73;;;5.38;;
60873;SDS011;46715;40.642;-7.920;2023-07-16T01:36:11;13.30;;;5.25;;
60873;SDS011;46715;40.642;-7.920;2023-07-16T01:38:13;10.82;;;5.35;;
60873;SDS011;46715;40.642;-7.920;2023-07-16T01:40:14;13.13;;;4.73;;
60873;SDS011;46715;40.642;-7.920;2023-07-16T01:42:15;15.23;;;5.00;;
60873;SDS011;46715;40.642;-7.920;2023-07-16T01:44:16;14.57;;;5.20;;
60873;SDS011;46715;40.642;-7.920;2023-07-16T01:46:17;12.97;;;4.73;;
60873;SDS011;46715;40.642;-7.920;2023-07-16T01:48:30;14.27;;;4.78;;
60873;SDS011;46715;40.642;-7.920;2023-07-16T01:50:33;12.23;;;5.10;;
60873;SDS011;46715;40.642;-7.920;2023-07-16T01:52:34;12.32;;;5.53;;
60873;SDS011;46715;40.642;-7.920;2023-07-16T01:54:35;13.23;;;5.47;;
60873;SDS011;46715;40.642;-7.920;2023-07-16T01:56:37;11.82;;;5.60;;
60873;SDS011;46715;40.642;-7.920;2023-07-16T01:58:37;13.30;;;5.20;;
60873;SDS011;46715;40.642;-7.920;2023-07-16T02:00:38;10.23;;;5.03;;
60873;SDS011;46715;40.642;-7.920;2023-07-16T02:02:39;17.97;;;5.77;;
60873;SDS011;46715;40.642;-7.920;2023-07-16T02:04:40;8.37;;;4.77;;
60873;SDS011;46715;40.642;-7.920;2023-07-16T02:06:40;10.93;;;5.13;;
60873;SDS011;46715;40.642;-7.920;2023-07-16T02:08:42;10.13;;;5.57;;
60873;SDS011;46715;40.642;-7.920;2023-07-16T02:10:43;11.57;;;5.67;;
60873;SDS011;46715;40.642;-7.920;2023-07-16T02:12:45;17.98;;;5.60;;
60873;SDS011;46715;40.642;-7.920;2023-07-16T02:14:46;19.07;;;6.27;;
60873;SDS011;46715;40.642;-7.920;2023-07-16T02:16:47;13.23;;;5.18;;
60873;SDS011;46715;40.642;-7.920;2023-07-16T02:18:48;19.73;;;5.77;;
60873;SDS011;46715;40.642;-7.920;2023-07-16T02:20:48;11.23;;;4.80;;
60873;SDS011;46715;40.642;-7.920;2023-07-16T02:22:49;13.13;;;4.97;;
60873;SDS011;46715;40.642;-7.920;2023-07-16T02:24:49;19.00;;;5.13;;
60873;SDS011;46715;40.642;-7.920;2023-07-16T02:26:50;15.07;;;5.57;;
60873;SDS011;46715;40.642;-7.920;2023-07-16T02:28:51;10.07;;;5.03;;
60873;SDS011;46715;40.642;-7.920;2023-07-16T02:30:51;10.10;;;4.90;;
60873;SDS011;46715;40.642;-7.920;2023-07-16T02:32:52;12.57;;;5.50;;
60873;SDS011;46715;40.642;-7.920;2023-07-16T02:34:54;15.68;;;6.07;;
60873;SDS011;46715;40.642;-7.920;2023-07-16T02:36:55;13.00;;;5.05;;
60873;SDS011;46715;40.642;-7.920;2023-07-16T02:38:56;11.23;;;5.53;;
60873;SDS011;46715;40.642;-7.920;2023-07-16T02:40:57;19.00;;;5.03;;
60873;SDS011;46715;40.642;-7.920;2023-07-16T02:44:59;16.08;;;5.65;;
60873;SDS011;46715;40.642;-7.920;2023-07-16T02:47:00;12.40;;;5.40;;
60873;SDS011;46715;40.642;-7.920;2023-07-16T02:49:01;19.23;;;6.50;;
60873;SDS011;46715;40.642;-7.920;2023-07-16T02:51:04;12.15;;;5.45;;
60873;SDS011;46715;40.642;-7.920;2023-07-16T02:53:05;11.23;;;5.00;;
60873;SDS011;46715;40.642;-7.920;2023-07-16T02:55:06;12.25;;;5.75;;
60873;SDS011;46715;40.642;-7.920;2023-07-16T02:57:07;10.20;;;6.37;;
60873;SDS011;46715;40.642;-7.920;2023-07-16T02:59:08;11.97;;;6.10;;
60873;SDS011;46715;40.642;-7.920;2023-07-16T03:01:11;17.33;;;5.47;;
60873;SDS011;46715;40.642;-7.920;2023-07-16T03:03:12;13.10;;;5.40;;
60873;SDS011;46715;40.642;-7.920;2023-07-16T03:05:13;15.40;;;6.03;;
60873;SDS011;46715;40.642;-7.920;2023-07-16T03:07:14;11.90;;;5.07;;
60873;SDS011;46715;40.642;-7.920;2023-07-16T03:09:14;11.03;;;5.63;;
60873;SDS011;46715;40.642;-7.920;2023-07-16T03:11:15;18.67;;;5.90;;
60873;SDS011;46715;40.642;-7.920;2023-07-16T03:13:16;12.87;;;5.33;;
60873;SDS011;46715;40.642;-7.920;2023-07-16T03:15:16;13.10;;;6.17;;
60873;SDS011;46715;40.642;-7.920;2023-07-16T03:17:17;13.27;;;5.33;;
60873;SDS011;46715;40.642;-7.920;2023-07-16T03:19:18;18.50;;;5.30;;
60873;SDS011;46715;40.642;-7.920;2023-07-16T03:21:20;13.45;;;5.70;;
60873;SDS011;46715;40.642;-7.920;2023-07-16T03:25:23;11.10;;;4.70;;
60873;SDS011;46715;40.642;-7.920;2023-07-16T03:27:24;10.77;;;4.93;;
60873;SDS011;46715;40.642;-7.920;2023-07-16T03:29:30;9.23;;;5.30;;
60873;SDS011;46715;40.642;-7.920;2023-07-16T03:31:35;13.10;;;4.97;;
60873;SDS011;46715;40.642;-7.920;2023-07-16T03:33:37;13.82;;;5.15;;
60873;SDS011;46715;40.642;-7.920;2023-07-16T03:35:38;16.73;;;5.07;;
60873;SDS011;46715;40.642;-7.920;2023-07-16T03:37:39;11.33;;;5.10;;
60873;SDS011;46715;40.642;-7.920;2023-07-16T03:39:41;15.45;;;6.05;;
60873;SDS011;46715;40.642;-7.920;2023-07-16T03:41:41;13.17;;;6.10;;
60873;SDS011;46715;40.642;-7.920;2023-07-16T03:43:43;12.10;;;4.82;;
60873;SDS011;46715;40.642;-7.920;2023-07-16T03:45:52;13.68;;;5.28;;
60873;SDS011;46715;40.642;-7.920;2023-07-16T03:47:54;14.77;;;5.88;;
60873;SDS011;46715;40.642;-7.920;2023-07-16T03:49:54;12.53;;;6.30;;
60873;SDS011;46715;40.642;-7.920;2023-07-16T03:51:55;14.80;;;5.67;;
60873;SDS011;46715;40.642;-7.920;2023-07-16T03:53:56;11.47;;;5.27;;
60873;SDS011;46715;40.642;-7.920;2023-07-16T03:55:57;10.48;;;5.82;;
60873;SDS011;46715;40.642;-7.920;2023-07-16T03:57:57;13.53;;;5.00;;
60873;SDS011;46715;40.642;-7.920;2023-07-16T03:59:58;9.80;;;5.63;;
60873;SDS011;46715;40.642;-7.920;2023-07-16T04:01:59;14.23;;;5.53;;
60873;SDS011;46715;40.642;-7.920;2023-07-16T04:04:00;14.07;;;5.47;;
60873;SDS011;46715;40.642;-7.920;2023-07-16T04:06:04;10.63;;;5.72;;
60873;SDS011;46715;40.642;-7.920;2023-07-16T04:08:06;9.90;;;5.05;;
60873;SDS011;46715;40.642;-7.920;2023-07-16T04:10:08;15.52;;;6.60;;
60873;SDS011;46715;40.642;-7.920;2023-07-16T04:12:09;12.73;;;4.70;;
60873;SDS011;46715;40.642;-7.920;2023-07-16T04:14:10;15.03;;;5.50;;
60873;SDS011;46715;40.642;-7.920;2023-07-16T04:16:10;11.40;;;5.43;;
60873;SDS011;46715;40.642;-7.920;2023-07-16T04:18:11;11.17;;;5.37;;
60873;SDS011;46715;40.642;-7.920;2023-07-16T04:20:11;13.37;;;5.50;;
60873;SDS011;46715;40.642;-7.920;2023-07-16T04:22:12;13.97;;;5.27;;
60873;SDS011;46715;40.642;-7.920;2023-07-16T04:24:13;14.60;;;5.30;;
60873;SDS011;46715;40.642;-7.920;2023-07-16T04:26:13;16.13;;;5.93;;
60873;SDS011;46715;40.642;-7.920;2023-07-16T04:28:14;15.50;;;6.07;;
60873;SDS011;46715;40.642;-7.920;2023-07-16T04:30:15;10.90;;;5.77;;
60873;SDS011;46715;40.642;-7.920;2023-07-16T04:32:15;14.57;;;5.80;;
60873;SDS011;46715;40.642;-7.920;2023-07-16T04:34:16;13.53;;;5.90;;
60873;SDS011;46715;40.642;-7.920;2023-07-16T04:36:17;15.77;;;6.10;;
60873;SDS011;46715;40.642;-7.920;2023-07-16T04:38:17;9.67;;;5.63;;
60873;SDS011;46715;40.642;-7.920;2023-07-16T04:40:18;14.40;;;6.03;;
60873;SDS011;46715;40.642;-7.920;2023-07-16T04:42:19;12.60;;;6.27;;
60873;SDS011;46715;40.642;-7.920;2023-07-16T04:44:21;18.90;;;5.82;;
60873;SDS011;46715;40.642;-7.920;2023-07-16T04:46:21;11.73;;;6.33;;
60873;SDS011;46715;40.642;-7.920;2023-07-16T04:48:22;16.83;;;6.07;;
60873;SDS011;46715;40.642;-7.920;2023-07-16T04:50:23;12.70;;;5.90;;
60873;SDS011;46715;40.642;-7.920;2023-07-16T04:52:23;12.70;;;6.50;;
60873;SDS011;46715;40.642;-7.920;2023-07-16T04:54:24;12.37;;;5.33;;
60873;SDS011;46715;40.642;-7.920;2023-07-16T04:56:25;12.97;;;5.90;;
60873;SDS011;46715;40.642;-7.920;2023-07-16T04:58:25;11.80;;;4.93;;
60873;SDS011;46715;40.642;-7.920;2023-07-16T05:00:26;14.57;;;5.93;;
60873;SDS011;46715;40.642;-7.920;2023-07-16T05:02:27;13.67;;;5.17;;
60873;SDS011;46715;40.642;-7.920;2023-07-16T05:04:27;13.07;;;4.80;;
60873;SDS011;46715;40.642;-7.920;2023-07-16T05:06:28;17.63;;;6.13;;
60873;SDS011;46715;40.642;-7.920;2023-07-16T05:08:29;9.83;;;5.23;;
60873;SDS011;46715;40.642;-7.920;2023-07-16T05:10:29;13.17;;;5.97;;
60873;SDS011;46715;40.642;-7.920;2023-07-16T05:12:30;15.60;;;5.47;;
60873;SDS011;46715;40.642;-7.920;2023-07-16T05:14:31;14.90;;;5.00;;
60873;SDS011;46715;40.642;-7.920;2023-07-16T05:16:42;9.43;;;5.30;;
60873;SDS011;46715;40.642;-7.920;2023-07-16T05:18:43;11.90;;;5.53;;
60873;SDS011;46715;40.642;-7.920;2023-07-16T05:20:46;11.33;;;5.13;;
60873;SDS011;46715;40.642;-7.920;2023-07-16T05:22:47;12.55;;;5.43;;
60873;SDS011;46715;40.642;-7.920;2023-07-16T05:24:47;10.87;;;5.43;;
60873;SDS011;46715;40.642;-7.920;2023-07-16T05:26:48;14.77;;;6.37;;
60873;SDS011;46715;40.642;-7.920;2023-07-16T05:28:50;14.98;;;5.32;;
60873;SDS011;46715;40.642;-7.920;2023-07-16T05:30:57;12.03;;;5.67;;
60873;SDS011;46715;40.642;-7.920;2023-07-16T05:32:59;19.25;;;6.10;;
60873;SDS011;46715;40.642;-7.920;2023-07-16T05:34:59;15.60;;;5.30;;
60873;SDS011;46715;40.642;-7.920;2023-07-16T05:37:00;11.40;;;5.80;;
60873;SDS011;46715;40.642;-7.920;2023-07-16T05:39:01;10.67;;;4.70;;
60873;SDS011;46715;40.642;-7.920;2023-07-16T05:41:02;8.93;;;4.47;;
60873;SDS011;46715;40.642;-7.920;2023-07-16T05:43:03;11.50;;;5.00;;
60873;SDS011;46715;40.642;-7.920;2023-07-16T05:45:04;8.93;;;4.23;;
60873;SDS011;46715;40.642;-7.920;2023-07-16T05:47:05;8.70;;;4.45;;
60873;SDS011;46715;40.642;-7.920;2023-07-16T05:49:06;8.97;;;4.60;;
60873;SDS011;46715;40.642;-7.920;2023-07-16T05:51:06;8.77;;;4.30;;
60873;SDS011;46715;40.642;-7.920;2023-07-16T05:53:07;10.67;;;4.13;;
60873;SDS011;46715;40.642;-7.920;2023-07-16T05:55:08;15.17;;;5.13;;
60873;SDS011;46715;40.642;-7.920;2023-07-16T05:57:08;8.73;;;4.53;;
60873;SDS011;46715;40.642;-7.920;2023-07-16T05:59:10;10.50;;;4.25;;
60873;SDS011;46715;40.642;-7.920;2023-07-16T06:01:11;11.67;;;4.53;;
60873;SDS011;46715;40.642;-7.920;2023-07-16T06:03:11;15.13;;;4.90;;
60873;SDS011;46715;40.642;-7.920;2023-07-16T06:05:12;8.90;;;4.20;;
60873;SDS011;46715;40.642;-7.920;2023-07-16T06:07:15;8.32;;;4.32;;
60873;SDS011;46715;40.642;-7.920;2023-07-16T06:09:18;11.48;;;4.45;;
60873;SDS011;46715;40.642;-7.920;2023-07-16T06:11:19;8.23;;;4.53;;
60873;SDS011;46715;40.642;-7.920;2023-07-16T06:13:19;11.10;;;4.20;;
60873;SDS011;46715;40.642;-7.920;2023-07-16T06:15:20;11.33;;;4.77;;
60873;SDS011;46715;40.642;-7.920;2023-07-16T06:17:21;7.70;;;4.20;;
60873;SDS011;46715;40.642;-7.920;2023-07-16T06:19:21;7.13;;;3.77;;
60873;SDS011;46715;40.642;-7.920;2023-07-16T06:21:22;9.13;;;4.40;;
60873;SDS011;46715;40.642;-7.920;2023-07-16T06:23:23;13.13;;;5.07;;
60873;SDS011;46715;40.642;-7.920;2023-07-16T06:25:23;11.70;;;4.17;;
60873;SDS011;46715;40.642;-7.920;2023-07-16T06:27:24;12.27;;;3.93;;
60873;SDS011;46715;40.642;-7.920;2023-07-16T06:29:25;8.82;;;4.28;;
60873;SDS011;46715;40.642;-7.920;2023-07-16T06:31:26;7.37;;;4.13;;
60873;SDS011;46715;40.642;-7.920;2023-07-16T06:33:27;8.07;;;3.83;;
60873;SDS011;46715;40.642;-7.920;2023-07-16T06:35:28;8.23;;;3.95;;
60873;SDS011;46715;40.642;-7.920;2023-07-16T06:37:29;10.80;;;4.73;;
60873;SDS011;46715;40.642;-7.920;2023-07-16T06:39:30;12.27;;;4.40;;
60873;SDS011;46715;40.642;-7.920;2023-07-16T06:41:31;7.65;;;4.18;;
60873;SDS011;46715;40.642;-7.920;2023-07-16T06:43:32;10.73;;;5.05;;
60873;SDS011;46715;40.642;-7.920;2023-07-16T06:45:33;10.30;;;4.53;;
60873;SDS011;46715;40.642;-7.920;2023-07-16T06:47:34;8.03;;;3.97;;
60873;SDS011;46715;40.642;-7.920;2023-07-16T06:49:35;9.43;;;4.15;;
60873;SDS011;46715;40.642;-7.920;2023-07-16T06:51:36;9.90;;;4.37;;
60873;SDS011;46715;40.642;-7.920;2023-07-16T06:53:36;10.17;;;4.53;;
60873;SDS011;46715;40.642;-7.920;2023-07-16T06:55:37;11.37;;;4.77;;
60873;SDS011;46715;40.642;-7.920;2023-07-16T06:57:38;8.57;;;4.00;;
60873;SDS011;46715;40.642;-7.920;2023-07-16T06:59:39;7.30;;;3.67;;
60873;SDS011;46715;40.642;-7.920;2023-07-16T07:01:40;7.00;;;3.30;;
60873;SDS011;46715;40.642;-7.920;2023-07-16T07:03:40;10.10;;;4.00;;
60873;SDS011;46715;40.642;-7.920;2023-07-16T07:05:41;8.57;;;3.57;;
60873;SDS011;46715;40.642;-7.920;2023-07-16T07:07:45;6.78;;;3.22;;
60873;SDS011;46715;40.642;-7.920;2023-07-16T07:09:48;10.67;;;3.83;;
60873;SDS011;46715;40.642;-7.920;2023-07-16T07:11:49;9.98;;;4.10;;
60873;SDS011;46715;40.642;-7.920;2023-07-16T07:13:51;8.33;;;3.83;;
60873;SDS011;46715;40.642;-7.920;2023-07-16T07:15:52;7.13;;;3.55;;
60873;SDS011;46715;40.642;-7.920;2023-07-16T07:17:53;7.07;;;3.30;;
60873;SDS011;46715;40.642;-7.920;2023-07-16T07:19:54;7.90;;;3.50;;
60873;SDS011;46715;40.642;-7.920;2023-07-16T07:21:55;10.33;;;3.90;;
60873;SDS011;46715;40.642;-7.920;2023-07-16T07:23:55;10.33;;;4.30;;
60873;SDS011;46715;40.642;-7.920;2023-07-16T07:25:56;10.03;;;4.90;;
60873;SDS011;46715;40.642;-7.920;2023-07-16T07:27:57;6.13;;;3.77;;
60873;SDS011;46715;40.642;-7.920;2023-07-16T07:29:57;11.63;;;4.33;;
60873;SDS011;46715;40.642;-7.920;2023-07-16T07:31:58;8.83;;;3.83;;
60873;SDS011;46715;40.642;-7.920;2023-07-16T07:34:00;8.90;;;3.58;;
60873;SDS011;46715;40.642;-7.920;2023-07-16T07:36:01;9.93;;;3.60;;
60873;SDS011;46715;40.642;-7.920;2023-07-16T07:38:02;8.80;;;3.40;;
60873;SDS011;46715;40.642;-7.920;2023-07-16T07:40:03;10.73;;;3.43;;
60873;SDS011;46715;40.642;-7.920;2023-07-16T07:42:04;8.32;;;3.00;;
60873;SDS011;46715;40.642;-7.920;2023-07-16T07:44:05;6.68;;;3.00;;
60873;SDS011;46715;40.642;-7.920;2023-07-16T07:46:06;5.03;;;2.43;;
60873;SDS011;46715;40.642;-7.920;2023-07-16T07:48:06;6.53;;;3.00;;
60873;SDS011;46715;40.642;-7.920;2023-07-16T07:50:07;5.85;;;2.47;;
60873;SDS011;46715;40.642;-7.920;2023-07-16T07:52:08;4.30;;;2.20;;
60873;SDS011;46715;40.642;-7.920;2023-07-16T07:54:09;5.93;;;2.30;;
60873;SDS011;46715;40.642;-7.920;2023-07-16T07:56:09;4.93;;;2.20;;
60873;SDS011;46715;40.642;-7.920;2023-07-16T07:58:10;4.75;;;2.00;;
60873;SDS011;46715;40.642;-7.920;2023-07-16T08:02:12;4.40;;;2.30;;
60873;SDS011;46715;40.642;-7.920;2023-07-16T08:04:13;5.13;;;2.03;;
60873;SDS011;46715;40.642;-7.920;2023-07-16T08:06:14;6.20;;;2.28;;
60873;SDS011;46715;40.642;-7.920;2023-07-16T08:08:14;7.85;;;2.00;;
60873;SDS011;46715;40.642;-7.920;2023-07-16T08:10:15;8.02;;;2.10;;
60873;SDS011;46715;40.642;-7.920;2023-07-16T08:12:16;7.07;;;2.38;;
60873;SDS011;46715;40.642;-7.920;2023-07-16T08:14:16;4.20;;;1.83;;
60873;SDS011;46715;40.642;-7.920;2023-07-16T08:16:17;6.53;;;2.70;;
60873;SDS011;46715;40.642;-7.920;2023-07-16T08:18:18;6.68;;;1.83;;
60873;SDS011;46715;40.642;-7.920;2023-07-16T08:22:19;5.27;;;1.67;;
60873;SDS011;46715;40.642;-7.920;2023-07-16T08:24:19;4.72;;;1.83;;
60873;SDS011;46715;40.642;-7.920;2023-07-16T08:28:21;8.93;;;2.87;;
60873;SDS011;46715;40.642;-7.920;2023-07-16T08:32:22;7.30;;;1.70;;
60873;SDS011;46715;40.642;-7.920;2023-07-16T08:34:23;4.95;;;1.83;;
60873;SDS011;46715;40.642;-7.920;2023-07-16T08:38:24;7.97;;;2.23;;
60873;SDS011;46715;40.642;-7.920;2023-07-16T08:42:27;4.60;;;2.00;;
60873;SDS011;46715;40.642;-7.920;2023-07-16T08:44:30;5.15;;;2.05;;
60873;SDS011;46715;40.642;-7.920;2023-07-16T08:48:31;5.07;;;1.95;;
60873;SDS011;46715;40.642;-7.920;2023-07-16T08:52:34;4.80;;;2.00;;
60873;SDS011;46715;40.642;-7.920;2023-07-16T08:56:35;14.37;;;2.37;;
60873;SDS011;46715;40.642;-7.920;2023-07-16T08:58:37;5.25;;;1.77;;
60873;SDS011;46715;40.642;-7.920;2023-07-16T09:00:38;7.85;;;2.15;;
60873;SDS011;46715;40.642;-7.920;2023-07-16T09:02:40;6.15;;;2.20;;
60873;SDS011;46715;40.642;-7.920;2023-07-16T09:04:41;4.88;;;1.92;;
60873;SDS011;46715;40.642;-7.920;2023-07-16T09:08:42;5.87;;;2.20;;
60873;SDS011;46715;40.642;-7.920;2023-07-16T09:10:43;5.25;;;1.67;;
60873;SDS011;46715;40.642;-7.920;2023-07-16T09:12:47;4.03;;;2.25;;
60873;SDS011;46715;40.642;-7.920;2023-07-16T09:14:48;4.78;;;1.88;;
60873;SDS011;46715;40.642;-7.920;2023-07-16T09:16:55;4.10;;;1.58;;
60873;SDS011;46715;40.642;-7.920;2023-07-16T09:18:56;5.22;;;1.88;;
60873;SDS011;46715;40.642;-7.920;2023-07-16T09:20:57;4.13;;;1.80;;
60873;SDS011;46715;40.642;-7.920;2023-07-16T09:22:58;6.10;;;2.28;;
60873;SDS011;46715;40.642;-7.920;2023-07-16T09:25:04;5.35;;;1.92;;
60873;SDS011;46715;40.642;-7.920;2023-07-16T09:29:06;6.32;;;2.15;;
60873;SDS011;46715;40.642;-7.920;2023-07-16T09:31:07;5.10;;;1.83;;
60873;SDS011;46715;40.642;-7.920;2023-07-16T09:35:16;5.20;;;1.85;;
60873;SDS011;46715;40.642;-7.920;2023-07-16T09:37:18;2.83;;;1.60;;
60873;SDS011;46715;40.642;-7.920;2023-07-16T09:39:20;3.90;;;2.03;;
60873;SDS011;46715;40.642;-7.920;2023-07-16T09:41:20;5.70;;;1.98;;
60873;SDS011;46715;40.642;-7.920;2023-07-16T09:43:21;6.03;;;1.95;;
60873;SDS011;46715;40.642;-7.920;2023-07-16T09:45:22;6.75;;;1.90;;
60873;SDS011;46715;40.642;-7.920;2023-07-16T09:47:23;5.32;;;2.45;;
60873;SDS011;46715;40.642;-7.920;2023-07-16T09:49:25;5.93;;;2.05;;
60873;SDS011;46715;40.642;-7.920;2023-07-16T09:51:29;5.13;;;2.25;;
60873;SDS011;46715;40.642;-7.920;2023-07-16T09:53:33;5.15;;;2.38;;
60873;SDS011;46715;40.642;-7.920;2023-07-16T09:55:36;5.22;;;2.20;;
60873;SDS011;46715;40.642;-7.920;2023-07-16T09:57:39;6.18;;;2.60;;
60873;SDS011;46715;40.642;-7.920;2023-07-16T09:59:42;9.43;;;2.10;;
60873;SDS011;46715;40.642;-7.920;2023-07-16T10:01:44;5.68;;;2.20;;
60873;SDS011;46715;40.642;-7.920;2023-07-16T10:03:48;7.28;;;2.58;;
60873;SDS011;46715;40.642;-7.920;2023-07-16T10:05:50;7.32;;;2.42;;
60873;SDS011;46715;40.642;-7.920;2023-07-16T10:07:56;5.85;;;2.20;;
60873;SDS011;46715;40.642;-7.920;2023-07-16T10:10:01;4.88;;;2.28;;
60873;SDS011;46715;40.642;-7.920;2023-07-16T10:12:19;6.93;;;2.10;;
60873;SDS011;46715;40.642;-7.920;2023-07-16T10:16:25;6.15;;;2.50;;
60873;SDS011;46715;40.642;-7.920;2023-07-16T10:18:30;10.25;;;2.53;;
60873;SDS011;46715;40.642;-7.920;2023-07-16T10:20:35;9.13;;;2.13;;
60873;SDS011;46715;40.642;-7.920;2023-07-16T10:22:43;6.15;;;2.35;;
60873;SDS011;46715;40.642;-7.920;2023-07-16T10:24:55;3.85;;;1.73;;
60873;SDS011;46715;40.642;-7.920;2023-07-16T10:26:56;9.45;;;2.47;;
60873;SDS011;46715;40.642;-7.920;2023-07-16T10:28:57;5.90;;;1.90;;
60873;SDS011;46715;40.642;-7.920;2023-07-16T10:30:58;5.30;;;2.20;;
60873;SDS011;46715;40.642;-7.920;2023-07-16T10:33:02;4.80;;;1.83;;
60873;SDS011;46715;40.642;-7.920;2023-07-16T10:35:04;5.20;;;2.05;;
60873;SDS011;46715;40.642;-7.920;2023-07-16T10:37:05;4.15;;;1.98;;
60873;SDS011;46715;40.642;-7.920;2023-07-16T10:39:06;4.80;;;2.00;;
60873;SDS011;46715;40.642;-7.920;2023-07-16T10:43:08;7.97;;;2.10;;
60873;SDS011;46715;40.642;-7.920;2023-07-16T10:45:09;4.13;;;2.33;;
60873;SDS011;46715;40.642;-7.920;2023-07-16T10:47:22;5.20;;;2.42;;
60873;SDS011;46715;40.642;-7.920;2023-07-16T10:49:27;7.68;;;2.20;;
60873;SDS011;46715;40.642;-7.920;2023-07-16T10:51:28;3.38;;;2.00;;
60873;SDS011;46715;40.642;-7.920;2023-07-16T10:53:29;4.57;;;1.92;;
60873;SDS011;46715;40.642;-7.920;2023-07-16T10:55:30;7.28;;;2.05;;
60873;SDS011;46715;40.642;-7.920;2023-07-16T10:57:37;5.63;;;2.10;;
60873;SDS011;46715;40.642;-7.920;2023-07-16T10:59:39;4.03;;;2.00;;
60873;SDS011;46715;40.642;-7.920;2023-07-16T11:01:40;7.28;;;2.15;;
60873;SDS011;46715;40.642;-7.920;2023-07-16T11:03:41;5.45;;;2.33;;
60873;SDS011;46715;40.642;-7.920;2023-07-16T11:05:44;6.90;;;2.28;;
60873;SDS011;46715;40.642;-7.920;2023-07-16T11:07:47;9.32;;;2.10;;
60873;SDS011;46715;40.642;-7.920;2023-07-16T11:09:52;5.15;;;2.25;;
60873;SDS011;46715;40.642;-7.920;2023-07-16T11:12:31;7.32;;;1.90;;
60873;SDS011;46715;40.642;-7.920;2023-07-16T11:14:24;6.82;;;2.20;;
60873;SDS011;46715;40.642;-7.920;2023-07-16T11:18:26;6.13;;;2.33;;
60873;SDS011;46715;40.642;-7.920;2023-07-16T11:20:27;5.95;;;2.17;;
60873;SDS011;46715;40.642;-7.920;2023-07-16T11:22:29;4.53;;;2.45;;
60873;SDS011;46715;40.642;-7.920;2023-07-16T11:24:40;9.63;;;2.95;;
60873;SDS011;46715;40.642;-7.920;2023-07-16T11:26:51;4.57;;;2.22;;
60873;SDS011;46715;40.642;-7.920;2023-07-16T11:28:52;4.70;;;2.30;;
60873;SDS011;46715;40.642;-7.920;2023-07-16T11:30:53;7.10;;;2.50;;
60873;SDS011;46715;40.642;-7.920;2023-07-16T11:32:54;7.20;;;2.47;;
60873;SDS011;46715;40.642;-7.920;2023-07-16T11:34:55;5.28;;;2.08;;
60873;SDS011;46715;40.642;-7.920;2023-07-16T11:39:07;8.63;;;2.72;;
60873;SDS011;46715;40.642;-7.920;2023-07-16T11:41:08;6.43;;;2.50;;
60873;SDS011;46715;40.642;-7.920;2023-07-16T11:43:09;7.55;;;2.63;;
60873;SDS011;46715;40.642;-7.920;2023-07-16T11:45:17;5.63;;;2.35;;
60873;SDS011;46715;40.642;-7.920;2023-07-16T11:47:23;7.72;;;2.78;;
60873;SDS011;46715;40.642;-7.920;2023-07-16T11:51:25;4.93;;;2.40;;
60873;SDS011;46715;40.642;-7.920;2023-07-16T11:53:25;5.47;;;2.80;;
60873;SDS011;46715;40.642;-7.920;2023-07-16T11:55:26;5.90;;;2.75;;
60873;SDS011;46715;40.642;-7.920;2023-07-16T11:57:30;5.43;;;2.33;;
60873;SDS011;46715;40.642;-7.920;2023-07-16T11:59:31;8.00;;;2.78;;
60873;SDS011;46715;40.642;-7.920;2023-07-16T12:01:31;5.43;;;2.33;;
60873;SDS011;46715;40.642;-7.920;2023-07-16T12:03:32;4.60;;;2.70;;
60873;SDS011;46715;40.642;-7.920;2023-07-16T12:05:33;5.32;;;2.25;;
60873;SDS011;46715;40.642;-7.920;2023-07-16T12:07:34;3.45;;;2.42;;
60873;SDS011;46715;40.642;-7.920;2023-07-16T12:09:36;7.90;;;2.90;;
60873;SDS011;46715;40.642;-7.920;2023-07-16T12:11:37;4.05;;;2.45;;
60873;SDS011;46715;40.642;-7.920;2023-07-16T12:13:38;5.10;;;2.47;;
60873;SDS011;46715;40.642;-7.920;2023-07-16T12:15:38;6.25;;;2.25;;
60873;SDS011;46715;40.642;-7.920;2023-07-16T12:17:39;5.00;;;2.65;;
60873;SDS011;46715;40.642;-7.920;2023-07-16T12:19:40;4.30;;;2.00;;
60873;SDS011;46715;40.642;-7.920;2023-07-16T12:21:40;6.15;;;2.38;;
60873;SDS011;46715;40.642;-7.920;2023-07-16T12:23:41;3.88;;;2.30;;
60873;SDS011;46715;40.642;-7.920;2023-07-16T12:25:42;3.38;;;2.17;;
60873;SDS011;46715;40.642;-7.920;2023-07-16T12:27:43;4.47;;;2.45;;
60873;SDS011;46715;40.642;-7.920;2023-07-16T12:29:44;3.33;;;2.08;;
60873;SDS011;46715;40.642;-7.920;2023-07-16T12:31:45;6.35;;;2.55;;
60873;SDS011;46715;40.642;-7.920;2023-07-16T12:33:46;7.85;;;2.17;;
60873;SDS011;46715;40.642;-7.920;2023-07-16T12:35:46;7.00;;;2.45;;
60873;SDS011;46715;40.642;-7.920;2023-07-16T12:37:47;3.75;;;2.20;;
60873;SDS011;46715;40.642;-7.920;2023-07-16T12:39:48;5.68;;;2.00;;
60873;SDS011;46715;40.642;-7.920;2023-07-16T12:41:49;4.75;;;2.20;;